sensor_id;sensor_type;location;lat;lon;timestamp;P1;durP1;ratioP1;P2;durP2;ratioP2
8978;SDS011;4524;51.364;5.448;2023-02-10T00:01:11;35.43;;;24.50;;
8978;SDS011;4524;51.364;5.448;2023-02-10T00:03:41;37.40;;;25.77;;
8978;SDS011;4524;51.364;5.448;2023-02-10T00:06:11;38.30;;;25.50;;
8978;SDS011;4524;51.364;5.448;2023-02-10T00:08:40;39.63;;;25.90;;
8978;SDS011;4524;51.364;5.448;2023-02-10T00:11:08;32.20;;;23.90;;
8978;SDS011;4524;51.364;5.448;2023-02-10T00:13:38;39.60;;;26.70;;
8978;SDS011;4524;51.364;5.448;2023-02-10T00:16:07;37.80;;;24.67;;
8978;SDS011;4524;51.364;5.448;2023-02-10T00:18:38;39.40;;;25.67;;
8978;SDS011;4524;51.364;5.448;2023-02-10T00:21:06;35.77;;;24.97;;
8978;SDS011;4524;51.364;5.448;2023-02-10T00:23:37;39.13;;;26.40;;
8978;SDS011;4524;51.364;5.448;2023-02-10T00:26:06;35.97;;;25.93;;
8978;SDS011;4524;51.364;5.448;2023-02-10T00:28:35;37.80;;;26.03;;
8978;SDS011;4524;51.364;5.448;2023-02-10T00:31:04;37.87;;;26.03;;
8978;SDS011;4524;51.364;5.448;2023-02-10T00:33:33;41.53;;;26.10;;
8978;SDS011;4524;51.364;5.448;2023-02-10T00:36:02;36.07;;;24.97;;
8978;SDS011;4524;51.364;5.448;2023-02-10T00:38:31;40.77;;;25.87;;
8978;SDS011;4524;51.364;5.448;2023-02-10T00:41:02;36.00;;;24.90;;
8978;SDS011;4524;51.364;5.448;2023-02-10T00:43:31;40.20;;;27.00;;
8978;SDS011;4524;51.364;5.448;2023-02-10T00:45:59;36.43;;;25.63;;
8978;SDS011;4524;51.364;5.448;2023-02-10T00:48:28;44.07;;;27.27;;
8978;SDS011;4524;51.364;5.448;2023-02-10T00:50:56;39.77;;;26.73;;
8978;SDS011;4524;51.364;5.448;2023-02-10T00:53:24;39.10;;;25.80;;
8978;SDS011;4524;51.364;5.448;2023-02-10T00:55:52;40.73;;;26.73;;
8978;SDS011;4524;51.364;5.448;2023-02-10T00:58:23;38.47;;;26.40;;
8978;SDS011;4524;51.364;5.448;2023-02-10T01:00:52;37.53;;;26.87;;
8978;SDS011;4524;51.364;5.448;2023-02-10T01:03:20;41.70;;;27.60;;
8978;SDS011;4524;51.364;5.448;2023-02-10T01:05:49;41.57;;;26.37;;
8978;SDS011;4524;51.364;5.448;2023-02-10T01:08:19;37.93;;;25.90;;
8978;SDS011;4524;51.364;5.448;2023-02-10T01:10:47;39.50;;;26.47;;
8978;SDS011;4524;51.364;5.448;2023-02-10T01:13:15;38.83;;;26.63;;
8978;SDS011;4524;51.364;5.448;2023-02-10T01:15:45;41.60;;;27.13;;
8978;SDS011;4524;51.364;5.448;2023-02-10T01:18:14;35.13;;;24.60;;
8978;SDS011;4524;51.364;5.448;2023-02-10T01:20:42;39.17;;;26.93;;
8978;SDS011;4524;51.364;5.448;2023-02-10T01:23:10;39.93;;;26.97;;
8978;SDS011;4524;51.364;5.448;2023-02-10T01:25:38;41.90;;;27.43;;
8978;SDS011;4524;51.364;5.448;2023-02-10T01:28:06;37.47;;;25.63;;
8978;SDS011;4524;51.364;5.448;2023-02-10T01:30:36;37.47;;;24.90;;
8978;SDS011;4524;51.364;5.448;2023-02-10T01:33:06;40.10;;;26.70;;
8978;SDS011;4524;51.364;5.448;2023-02-10T01:35:36;34.33;;;25.93;;
8978;SDS011;4524;51.364;5.448;2023-02-10T01:38:04;38.13;;;27.33;;
8978;SDS011;4524;51.364;5.448;2023-02-10T01:40:32;35.17;;;24.50;;
8978;SDS011;4524;51.364;5.448;2023-02-10T01:43:00;34.67;;;25.50;;
8978;SDS011;4524;51.364;5.448;2023-02-10T01:45:31;36.70;;;25.00;;
8978;SDS011;4524;51.364;5.448;2023-02-10T01:47:59;37.37;;;26.17;;
8978;SDS011;4524;51.364;5.448;2023-02-10T01:50:30;44.30;;;27.90;;
8978;SDS011;4524;51.364;5.448;2023-02-10T01:53:02;39.43;;;26.13;;
8978;SDS011;4524;51.364;5.448;2023-02-10T01:55:33;39.90;;;26.40;;
8978;SDS011;4524;51.364;5.448;2023-02-10T01:58:02;37.33;;;25.63;;
8978;SDS011;4524;51.364;5.448;2023-02-10T02:00:35;38.00;;;25.87;;
8978;SDS011;4524;51.364;5.448;2023-02-10T02:03:04;41.67;;;27.37;;
8978;SDS011;4524;51.364;5.448;2023-02-10T02:05:35;41.27;;;26.83;;
8978;SDS011;4524;51.364;5.448;2023-02-10T02:08:05;39.80;;;26.53;;
8978;SDS011;4524;51.364;5.448;2023-02-10T02:10:48;40.67;;;26.90;;
8978;SDS011;4524;51.364;5.448;2023-02-10T02:13:28;43.70;;;27.77;;
8978;SDS011;4524;51.364;5.448;2023-02-10T02:16:23;38.03;;;26.20;;
8978;SDS011;4524;51.364;5.448;2023-02-10T02:18:59;46.50;;;27.77;;
8978;SDS011;4524;51.364;5.448;2023-02-10T02:21:45;42.07;;;26.93;;
8978;SDS011;4524;51.364;5.448;2023-02-10T02:24:41;39.07;;;26.57;;
8978;SDS011;4524;51.364;5.448;2023-02-10T02:27:31;41.30;;;27.63;;
8978;SDS011;4524;51.364;5.448;2023-02-10T02:30:31;43.47;;;27.00;;
8978;SDS011;4524;51.364;5.448;2023-02-10T02:33:22;47.50;;;29.20;;
8978;SDS011;4524;51.364;5.448;2023-02-10T02:35:58;48.20;;;29.43;;
8978;SDS011;4524;51.364;5.448;2023-02-10T02:38:36;42.80;;;27.90;;
8978;SDS011;4524;51.364;5.448;2023-02-10T02:41:05;49.00;;;28.50;;
8978;SDS011;4524;51.364;5.448;2023-02-10T02:43:33;44.67;;;28.43;;
8978;SDS011;4524;51.364;5.448;2023-02-10T02:46:02;45.10;;;28.10;;
8978;SDS011;4524;51.364;5.448;2023-02-10T02:48:42;42.17;;;26.43;;
8978;SDS011;4524;51.364;5.448;2023-02-10T02:51:19;40.23;;;26.20;;
8978;SDS011;4524;51.364;5.448;2023-02-10T02:54:00;42.00;;;27.43;;
8978;SDS011;4524;51.364;5.448;2023-02-10T02:56:40;41.70;;;28.03;;
8978;SDS011;4524;51.364;5.448;2023-02-10T02:59:13;40.33;;;25.97;;
8978;SDS011;4524;51.364;5.448;2023-02-10T03:01:48;43.60;;;27.53;;
8978;SDS011;4524;51.364;5.448;2023-02-10T03:04:22;44.63;;;28.57;;
8978;SDS011;4524;51.364;5.448;2023-02-10T03:06:54;45.27;;;28.67;;
8978;SDS011;4524;51.364;5.448;2023-02-10T03:09:22;46.03;;;29.10;;
8978;SDS011;4524;51.364;5.448;2023-02-10T03:11:50;45.67;;;28.80;;
8978;SDS011;4524;51.364;5.448;2023-02-10T03:14:18;51.13;;;29.77;;
8978;SDS011;4524;51.364;5.448;2023-02-10T03:16:46;54.37;;;32.97;;
8978;SDS011;4524;51.364;5.448;2023-02-10T03:19:14;55.73;;;32.63;;
8978;SDS011;4524;51.364;5.448;2023-02-10T03:21:43;51.87;;;30.20;;
8978;SDS011;4524;51.364;5.448;2023-02-10T03:24:11;53.80;;;31.20;;
8978;SDS011;4524;51.364;5.448;2023-02-10T03:26:39;54.37;;;32.30;;
8978;SDS011;4524;51.364;5.448;2023-02-10T03:29:07;49.77;;;29.80;;
8978;SDS011;4524;51.364;5.448;2023-02-10T03:31:36;53.90;;;32.10;;
8978;SDS011;4524;51.364;5.448;2023-02-10T03:34:05;54.93;;;32.53;;
8978;SDS011;4524;51.364;5.448;2023-02-10T03:36:33;56.63;;;33.07;;
8978;SDS011;4524;51.364;5.448;2023-02-10T03:39:03;65.63;;;33.70;;
8978;SDS011;4524;51.364;5.448;2023-02-10T03:41:31;72.93;;;37.30;;
8978;SDS011;4524;51.364;5.448;2023-02-10T03:43:59;69.40;;;35.47;;
8978;SDS011;4524;51.364;5.448;2023-02-10T03:46:27;73.43;;;35.77;;
8978;SDS011;4524;51.364;5.448;2023-02-10T03:48:55;67.47;;;34.33;;
8978;SDS011;4524;51.364;5.448;2023-02-10T03:51:23;72.87;;;35.63;;
8978;SDS011;4524;51.364;5.448;2023-02-10T03:53:51;72.50;;;35.97;;
8978;SDS011;4524;51.364;5.448;2023-02-10T03:56:20;69.70;;;34.77;;
8978;SDS011;4524;51.364;5.448;2023-02-10T03:58:48;80.90;;;36.93;;
8978;SDS011;4524;51.364;5.448;2023-02-10T04:01:17;71.00;;;36.03;;
8978;SDS011;4524;51.364;5.448;2023-02-10T04:03:45;61.73;;;33.93;;
8978;SDS011;4524;51.364;5.448;2023-02-10T04:06:13;66.13;;;34.97;;
8978;SDS011;4524;51.364;5.448;2023-02-10T04:08:41;58.73;;;34.20;;
8978;SDS011;4524;51.364;5.448;2023-02-10T04:11:09;64.70;;;36.40;;
8978;SDS011;4524;51.364;5.448;2023-02-10T04:13:39;65.30;;;34.30;;
8978;SDS011;4524;51.364;5.448;2023-02-10T04:16:08;73.07;;;36.90;;
8978;SDS011;4524;51.364;5.448;2023-02-10T04:18:37;65.30;;;36.23;;
8978;SDS011;4524;51.364;5.448;2023-02-10T04:21:06;75.80;;;38.00;;
8978;SDS011;4524;51.364;5.448;2023-02-10T04:23:35;70.03;;;36.07;;
8978;SDS011;4524;51.364;5.448;2023-02-10T04:26:03;67.83;;;37.10;;
8978;SDS011;4524;51.364;5.448;2023-02-10T04:28:31;71.47;;;35.10;;
8978;SDS011;4524;51.364;5.448;2023-02-10T04:31:01;80.70;;;38.53;;
8978;SDS011;4524;51.364;5.448;2023-02-10T04:33:31;86.57;;;39.00;;
8978;SDS011;4524;51.364;5.448;2023-02-10T04:35:59;88.13;;;39.80;;
8978;SDS011;4524;51.364;5.448;2023-02-10T04:38:29;82.30;;;36.77;;
8978;SDS011;4524;51.364;5.448;2023-02-10T04:40:57;89.20;;;39.23;;
8978;SDS011;4524;51.364;5.448;2023-02-10T04:43:25;101.07;;;38.60;;
8978;SDS011;4524;51.364;5.448;2023-02-10T04:45:53;92.47;;;35.73;;
8978;SDS011;4524;51.364;5.448;2023-02-10T04:48:22;112.10;;;39.30;;
8978;SDS011;4524;51.364;5.448;2023-02-10T04:50:50;97.97;;;36.90;;
8978;SDS011;4524;51.364;5.448;2023-02-10T04:53:19;103.10;;;37.63;;
8978;SDS011;4524;51.364;5.448;2023-02-10T04:55:47;102.93;;;38.07;;
8978;SDS011;4524;51.364;5.448;2023-02-10T04:58:15;108.17;;;40.70;;
8978;SDS011;4524;51.364;5.448;2023-02-10T05:00:43;91.27;;;35.70;;
8978;SDS011;4524;51.364;5.448;2023-02-10T05:03:11;102.97;;;42.85;;
8978;SDS011;4524;51.364;5.448;2023-02-10T05:05:41;123.93;;;41.80;;
8978;SDS011;4524;51.364;5.448;2023-02-10T05:08:08;83.70;;;36.77;;
8978;SDS011;4524;51.364;5.448;2023-02-10T05:10:37;82.63;;;36.87;;
8978;SDS011;4524;51.364;5.448;2023-02-10T05:13:05;101.90;;;37.57;;
8978;SDS011;4524;51.364;5.448;2023-02-10T05:15:33;79.47;;;37.73;;
8978;SDS011;4524;51.364;5.448;2023-02-10T05:18:00;99.33;;;40.10;;
8978;SDS011;4524;51.364;5.448;2023-02-10T05:20:28;90.13;;;40.77;;
8978;SDS011;4524;51.364;5.448;2023-02-10T05:22:58;107.53;;;39.27;;
8978;SDS011;4524;51.364;5.448;2023-02-10T05:25:26;103.00;;;39.17;;
8978;SDS011;4524;51.364;5.448;2023-02-10T05:27:53;108.80;;;41.23;;
8978;SDS011;4524;51.364;5.448;2023-02-10T05:30:21;90.17;;;36.10;;
8978;SDS011;4524;51.364;5.448;2023-02-10T05:32:49;93.93;;;40.03;;
8978;SDS011;4524;51.364;5.448;2023-02-10T05:35:17;75.07;;;35.83;;
8978;SDS011;4524;51.364;5.448;2023-02-10T05:37:45;83.73;;;36.20;;
8978;SDS011;4524;51.364;5.448;2023-02-10T05:40:15;111.27;;;40.50;;
8978;SDS011;4524;51.364;5.448;2023-02-10T05:42:43;96.60;;;39.27;;
8978;SDS011;4524;51.364;5.448;2023-02-10T05:45:11;74.53;;;36.20;;
8978;SDS011;4524;51.364;5.448;2023-02-10T05:47:39;85.37;;;36.90;;
8978;SDS011;4524;51.364;5.448;2023-02-10T05:50:07;85.70;;;38.03;;
8978;SDS011;4524;51.364;5.448;2023-02-10T05:52:35;90.30;;;38.33;;
8978;SDS011;4524;51.364;5.448;2023-02-10T05:55:04;77.57;;;36.97;;
8978;SDS011;4524;51.364;5.448;2023-02-10T05:57:33;76.17;;;36.17;;
8978;SDS011;4524;51.364;5.448;2023-02-10T06:00:03;77.70;;;37.13;;
8978;SDS011;4524;51.364;5.448;2023-02-10T06:02:37;93.13;;;37.10;;
8978;SDS011;4524;51.364;5.448;2023-02-10T06:05:05;81.30;;;37.10;;
8978;SDS011;4524;51.364;5.448;2023-02-10T06:07:34;78.27;;;37.73;;
8978;SDS011;4524;51.364;5.448;2023-02-10T06:10:02;81.97;;;37.27;;
8978;SDS011;4524;51.364;5.448;2023-02-10T06:12:30;96.03;;;38.57;;
8978;SDS011;4524;51.364;5.448;2023-02-10T06:14:59;84.50;;;39.40;;
8978;SDS011;4524;51.364;5.448;2023-02-10T06:17:27;83.07;;;36.60;;
8978;SDS011;4524;51.364;5.448;2023-02-10T06:19:57;85.50;;;36.83;;
8978;SDS011;4524;51.364;5.448;2023-02-10T06:22:25;82.10;;;37.23;;
8978;SDS011;4524;51.364;5.448;2023-02-10T06:24:53;72.37;;;35.73;;
8978;SDS011;4524;51.364;5.448;2023-02-10T06:27:23;86.37;;;38.10;;
8978;SDS011;4524;51.364;5.448;2023-02-10T06:29:51;90.20;;;39.07;;
8978;SDS011;4524;51.364;5.448;2023-02-10T06:32:21;81.90;;;37.30;;
8978;SDS011;4524;51.364;5.448;2023-02-10T06:34:49;97.37;;;39.40;;
8978;SDS011;4524;51.364;5.448;2023-02-10T06:37:16;88.90;;;37.13;;
8978;SDS011;4524;51.364;5.448;2023-02-10T06:39:44;98.77;;;40.30;;
8978;SDS011;4524;51.364;5.448;2023-02-10T06:42:12;88.40;;;37.33;;
8978;SDS011;4524;51.364;5.448;2023-02-10T06:44:40;81.87;;;36.37;;
8978;SDS011;4524;51.364;5.448;2023-02-10T06:47:08;75.80;;;36.40;;
8978;SDS011;4524;51.364;5.448;2023-02-10T06:49:38;96.53;;;40.00;;
8978;SDS011;4524;51.364;5.448;2023-02-10T06:52:06;92.63;;;39.90;;
8978;SDS011;4524;51.364;5.448;2023-02-10T06:54:42;75.10;;;36.27;;
8978;SDS011;4524;51.364;5.448;2023-02-10T06:57:10;82.50;;;36.60;;
8978;SDS011;4524;51.364;5.448;2023-02-10T06:59:38;77.13;;;34.77;;
8978;SDS011;4524;51.364;5.448;2023-02-10T07:02:07;89.20;;;37.10;;
8978;SDS011;4524;51.364;5.448;2023-02-10T07:04:37;77.27;;;36.10;;
8978;SDS011;4524;51.364;5.448;2023-02-10T07:07:05;75.67;;;35.00;;
8978;SDS011;4524;51.364;5.448;2023-02-10T07:09:33;71.73;;;34.43;;
8978;SDS011;4524;51.364;5.448;2023-02-10T07:12:01;72.37;;;33.93;;
8978;SDS011;4524;51.364;5.448;2023-02-10T07:14:30;79.40;;;35.93;;
8978;SDS011;4524;51.364;5.448;2023-02-10T07:16:57;69.17;;;35.13;;
8978;SDS011;4524;51.364;5.448;2023-02-10T07:19:26;73.53;;;32.63;;
8978;SDS011;4524;51.364;5.448;2023-02-10T07:21:55;71.03;;;32.43;;
8978;SDS011;4524;51.364;5.448;2023-02-10T07:24:23;63.17;;;30.97;;
8978;SDS011;4524;51.364;5.448;2023-02-10T07:26:51;73.37;;;35.33;;
8978;SDS011;4524;51.364;5.448;2023-02-10T07:29:19;69.20;;;34.13;;
8978;SDS011;4524;51.364;5.448;2023-02-10T07:31:47;64.00;;;33.10;;
8978;SDS011;4524;51.364;5.448;2023-02-10T07:34:15;70.37;;;33.53;;
8978;SDS011;4524;51.364;5.448;2023-02-10T07:36:45;64.00;;;31.83;;
8978;SDS011;4524;51.364;5.448;2023-02-10T07:39:18;69.00;;;32.33;;
8978;SDS011;4524;51.364;5.448;2023-02-10T07:41:46;69.53;;;33.23;;
8978;SDS011;4524;51.364;5.448;2023-02-10T07:44:13;63.63;;;32.67;;
8978;SDS011;4524;51.364;5.448;2023-02-10T07:46:42;69.90;;;34.30;;
8978;SDS011;4524;51.364;5.448;2023-02-10T07:49:10;66.37;;;32.60;;
8978;SDS011;4524;51.364;5.448;2023-02-10T07:51:38;61.20;;;31.83;;
8978;SDS011;4524;51.364;5.448;2023-02-10T07:54:08;62.87;;;31.93;;
8978;SDS011;4524;51.364;5.448;2023-02-10T07:56:38;56.83;;;30.43;;
8978;SDS011;4524;51.364;5.448;2023-02-10T07:59:06;71.10;;;33.73;;
8978;SDS011;4524;51.364;5.448;2023-02-10T08:01:34;60.23;;;30.53;;
8978;SDS011;4524;51.364;5.448;2023-02-10T08:04:07;66.23;;;31.73;;
8978;SDS011;4524;51.364;5.448;2023-02-10T08:06:35;65.80;;;32.33;;
8978;SDS011;4524;51.364;5.448;2023-02-10T08:09:04;61.20;;;30.60;;
8978;SDS011;4524;51.364;5.448;2023-02-10T08:11:32;63.47;;;32.03;;
8978;SDS011;4524;51.364;5.448;2023-02-10T08:14:02;65.20;;;30.57;;
8978;SDS011;4524;51.364;5.448;2023-02-10T08:16:30;66.73;;;32.67;;
8978;SDS011;4524;51.364;5.448;2023-02-10T08:18:58;66.63;;;32.53;;
8978;SDS011;4524;51.364;5.448;2023-02-10T08:21:26;63.07;;;30.60;;
8978;SDS011;4524;51.364;5.448;2023-02-10T08:23:54;61.43;;;32.03;;
8978;SDS011;4524;51.364;5.448;2023-02-10T08:26:23;62.97;;;31.70;;
8978;SDS011;4524;51.364;5.448;2023-02-10T08:28:51;61.87;;;30.30;;
8978;SDS011;4524;51.364;5.448;2023-02-10T08:31:22;64.37;;;30.00;;
8978;SDS011;4524;51.364;5.448;2023-02-10T08:33:50;72.50;;;33.13;;
8978;SDS011;4524;51.364;5.448;2023-02-10T08:36:18;66.20;;;32.77;;
8978;SDS011;4524;51.364;5.448;2023-02-10T08:38:48;58.80;;;30.87;;
8978;SDS011;4524;51.364;5.448;2023-02-10T08:41:17;61.03;;;30.77;;
8978;SDS011;4524;51.364;5.448;2023-02-10T08:43:45;59.73;;;30.07;;
8978;SDS011;4524;51.364;5.448;2023-02-10T08:46:13;64.47;;;33.20;;
8978;SDS011;4524;51.364;5.448;2023-02-10T08:48:43;64.93;;;32.83;;
8978;SDS011;4524;51.364;5.448;2023-02-10T08:51:11;67.80;;;32.07;;
8978;SDS011;4524;51.364;5.448;2023-02-10T08:53:40;65.90;;;30.50;;
8978;SDS011;4524;51.364;5.448;2023-02-10T08:56:08;64.27;;;31.67;;
8978;SDS011;4524;51.364;5.448;2023-02-10T08:58:37;77.40;;;33.53;;
8978;SDS011;4524;51.364;5.448;2023-02-10T09:01:09;61.83;;;31.73;;
8978;SDS011;4524;51.364;5.448;2023-02-10T09:03:38;67.70;;;32.70;;
8978;SDS011;4524;51.364;5.448;2023-02-10T09:06:12;71.10;;;33.90;;
8978;SDS011;4524;51.364;5.448;2023-02-10T09:08:42;69.70;;;33.73;;
8978;SDS011;4524;51.364;5.448;2023-02-10T09:11:11;74.13;;;35.47;;
8978;SDS011;4524;51.364;5.448;2023-02-10T09:13:39;69.67;;;32.53;;
8978;SDS011;4524;51.364;5.448;2023-02-10T09:16:07;66.80;;;31.90;;
8978;SDS011;4524;51.364;5.448;2023-02-10T09:18:35;75.87;;;35.03;;
8978;SDS011;4524;51.364;5.448;2023-02-10T09:21:04;74.97;;;34.53;;
8978;SDS011;4524;51.364;5.448;2023-02-10T09:23:33;73.83;;;33.97;;
8978;SDS011;4524;51.364;5.448;2023-02-10T09:26:01;77.33;;;35.60;;
8978;SDS011;4524;51.364;5.448;2023-02-10T09:28:29;72.17;;;33.83;;
8978;SDS011;4524;51.364;5.448;2023-02-10T09:30:57;77.77;;;36.43;;
8978;SDS011;4524;51.364;5.448;2023-02-10T09:33:25;78.57;;;36.40;;
8978;SDS011;4524;51.364;5.448;2023-02-10T09:35:53;72.03;;;36.10;;
8978;SDS011;4524;51.364;5.448;2023-02-10T09:38:21;65.97;;;33.70;;
8978;SDS011;4524;51.364;5.448;2023-02-10T09:40:56;72.07;;;36.27;;
8978;SDS011;4524;51.364;5.448;2023-02-10T09:46:27;68.33;;;35.50;;
8978;SDS011;4524;51.364;5.448;2023-02-10T09:49:09;72.30;;;37.10;;
8978;SDS011;4524;51.364;5.448;2023-02-10T09:51:49;72.70;;;37.93;;
8978;SDS011;4524;51.364;5.448;2023-02-10T09:54:24;70.53;;;36.73;;
8978;SDS011;4524;51.364;5.448;2023-02-10T09:56:59;67.00;;;36.47;;
8978;SDS011;4524;51.364;5.448;2023-02-10T09:59:29;70.93;;;38.43;;
8978;SDS011;4524;51.364;5.448;2023-02-10T10:02:01;71.97;;;36.57;;
8978;SDS011;4524;51.364;5.448;2023-02-10T10:04:39;61.57;;;35.40;;
8978;SDS011;4524;51.364;5.448;2023-02-10T10:07:11;62.53;;;34.60;;
8978;SDS011;4524;51.364;5.448;2023-02-10T10:09:46;70.17;;;36.57;;
8978;SDS011;4524;51.364;5.448;2023-02-10T10:12:25;62.03;;;36.63;;
8978;SDS011;4524;51.364;5.448;2023-02-10T10:14:53;57.40;;;34.53;;
8978;SDS011;4524;51.364;5.448;2023-02-10T10:17:30;63.10;;;35.73;;
8978;SDS011;4524;51.364;5.448;2023-02-10T10:20:13;64.83;;;37.90;;
8978;SDS011;4524;51.364;5.448;2023-02-10T10:23:15;58.27;;;35.03;;
8978;SDS011;4524;51.364;5.448;2023-02-10T10:26:07;60.37;;;35.93;;
8978;SDS011;4524;51.364;5.448;2023-02-10T10:29:06;58.73;;;36.07;;
8978;SDS011;4524;51.364;5.448;2023-02-10T10:31:57;59.93;;;34.83;;
8978;SDS011;4524;51.364;5.448;2023-02-10T10:34:34;58.80;;;35.83;;
8978;SDS011;4524;51.364;5.448;2023-02-10T10:37:10;57.17;;;35.00;;
8978;SDS011;4524;51.364;5.448;2023-02-10T10:39:42;55.13;;;34.33;;
8978;SDS011;4524;51.364;5.448;2023-02-10T10:42:15;59.73;;;34.40;;
8978;SDS011;4524;51.364;5.448;2023-02-10T10:44:48;57.87;;;34.30;;
8978;SDS011;4524;51.364;5.448;2023-02-10T10:47:18;58.60;;;34.33;;
8978;SDS011;4524;51.364;5.448;2023-02-10T10:49:49;55.93;;;34.20;;
8978;SDS011;4524;51.364;5.448;2023-02-10T10:52:27;53.33;;;34.10;;
8978;SDS011;4524;51.364;5.448;2023-02-10T10:54:58;53.23;;;32.60;;
8978;SDS011;4524;51.364;5.448;2023-02-10T10:57:25;51.20;;;32.80;;
8978;SDS011;4524;51.364;5.448;2023-02-10T11:00:02;54.47;;;34.50;;
8978;SDS011;4524;51.364;5.448;2023-02-10T11:02:50;53.43;;;33.20;;
8978;SDS011;4524;51.364;5.448;2023-02-10T11:05:19;52.03;;;32.40;;
8978;SDS011;4524;51.364;5.448;2023-02-10T11:07:48;51.70;;;32.03;;
8978;SDS011;4524;51.364;5.448;2023-02-10T11:10:20;54.03;;;33.57;;
8978;SDS011;4524;51.364;5.448;2023-02-10T11:12:50;49.10;;;31.50;;
8978;SDS011;4524;51.364;5.448;2023-02-10T11:15:29;52.57;;;34.10;;
8978;SDS011;4524;51.364;5.448;2023-02-10T11:18:01;54.07;;;33.37;;
8978;SDS011;4524;51.364;5.448;2023-02-10T11:20:32;49.67;;;32.53;;
8978;SDS011;4524;51.364;5.448;2023-02-10T11:23:03;46.73;;;29.20;;
8978;SDS011;4524;51.364;5.448;2023-02-10T11:25:39;45.50;;;30.13;;
8978;SDS011;4524;51.364;5.448;2023-02-10T11:28:15;44.03;;;29.93;;
8978;SDS011;4524;51.364;5.448;2023-02-10T11:30:47;44.30;;;29.50;;
8978;SDS011;4524;51.364;5.448;2023-02-10T11:33:22;46.23;;;29.57;;
8978;SDS011;4524;51.364;5.448;2023-02-10T11:35:53;42.07;;;27.50;;
8978;SDS011;4524;51.364;5.448;2023-02-10T11:38:25;44.40;;;29.07;;
8978;SDS011;4524;51.364;5.448;2023-02-10T11:40:54;42.13;;;28.80;;
8978;SDS011;4524;51.364;5.448;2023-02-10T11:43:25;41.37;;;27.33;;
8978;SDS011;4524;51.364;5.448;2023-02-10T11:45:58;43.83;;;28.73;;
8978;SDS011;4524;51.364;5.448;2023-02-10T11:48:28;41.77;;;29.67;;
8978;SDS011;4524;51.364;5.448;2023-02-10T11:51:00;44.70;;;29.53;;
8978;SDS011;4524;51.364;5.448;2023-02-10T11:53:34;42.67;;;27.70;;
8978;SDS011;4524;51.364;5.448;2023-02-10T11:56:05;42.13;;;28.37;;
8978;SDS011;4524;51.364;5.448;2023-02-10T11:58:40;40.43;;;27.80;;
8978;SDS011;4524;51.364;5.448;2023-02-10T12:01:33;41.43;;;25.57;;
8978;SDS011;4524;51.364;5.448;2023-02-10T12:04:25;39.27;;;25.63;;
8978;SDS011;4524;51.364;5.448;2023-02-10T12:07:06;36.37;;;26.03;;
8978;SDS011;4524;51.364;5.448;2023-02-10T12:09:39;38.60;;;26.30;;
8978;SDS011;4524;51.364;5.448;2023-02-10T12:12:16;36.37;;;24.83;;
8978;SDS011;4524;51.364;5.448;2023-02-10T12:14:51;34.80;;;24.93;;
8978;SDS011;4524;51.364;5.448;2023-02-10T12:17:27;35.10;;;23.60;;
8978;SDS011;4524;51.364;5.448;2023-02-10T12:20:02;35.70;;;22.63;;
8978;SDS011;4524;51.364;5.448;2023-02-10T12:22:48;32.17;;;22.17;;
8978;SDS011;4524;51.364;5.448;2023-02-10T12:25:48;28.53;;;20.47;;
8978;SDS011;4524;51.364;5.448;2023-02-10T12:28:26;32.37;;;21.10;;
8978;SDS011;4524;51.364;5.448;2023-02-10T12:31:07;37.67;;;23.07;;
8978;SDS011;4524;51.364;5.448;2023-02-10T12:33:51;34.50;;;22.37;;
8978;SDS011;4524;51.364;5.448;2023-02-10T12:36:34;32.67;;;22.53;;
8978;SDS011;4524;51.364;5.448;2023-02-10T12:39:11;33.70;;;22.63;;
8978;SDS011;4524;51.364;5.448;2023-02-10T12:41:44;31.57;;;21.67;;
8978;SDS011;4524;51.364;5.448;2023-02-10T12:44:23;31.50;;;21.13;;
8978;SDS011;4524;51.364;5.448;2023-02-10T12:47:02;30.00;;;20.90;;
8978;SDS011;4524;51.364;5.448;2023-02-10T12:49:45;29.03;;;21.07;;
8978;SDS011;4524;51.364;5.448;2023-02-10T12:52:23;26.33;;;20.33;;
8978;SDS011;4524;51.364;5.448;2023-02-10T12:54:57;26.27;;;18.43;;
8978;SDS011;4524;51.364;5.448;2023-02-10T12:57:32;25.27;;;18.93;;
8978;SDS011;4524;51.364;5.448;2023-02-10T13:00:09;27.23;;;19.63;;
8978;SDS011;4524;51.364;5.448;2023-02-10T13:02:42;26.57;;;20.40;;
8978;SDS011;4524;51.364;5.448;2023-02-10T13:05:18;28.30;;;19.70;;
8978;SDS011;4524;51.364;5.448;2023-02-10T13:07:49;28.00;;;20.47;;
8978;SDS011;4524;51.364;5.448;2023-02-10T13:10:20;28.33;;;19.33;;
8978;SDS011;4524;51.364;5.448;2023-02-10T13:12:56;24.80;;;18.27;;
8978;SDS011;4524;51.364;5.448;2023-02-10T13:15:28;26.50;;;18.87;;
8978;SDS011;4524;51.364;5.448;2023-02-10T13:18:01;19.70;;;15.40;;
8978;SDS011;4524;51.364;5.448;2023-02-10T13:20:36;22.50;;;16.63;;
8978;SDS011;4524;51.364;5.448;2023-02-10T13:23:13;24.23;;;16.97;;
8978;SDS011;4524;51.364;5.448;2023-02-10T13:25:50;22.27;;;17.10;;
8978;SDS011;4524;51.364;5.448;2023-02-10T13:28:32;22.87;;;17.87;;
8978;SDS011;4524;51.364;5.448;2023-02-10T13:31:14;27.33;;;19.37;;
8978;SDS011;4524;51.364;5.448;2023-02-10T13:33:52;29.87;;;19.83;;
8978;SDS011;4524;51.364;5.448;2023-02-10T13:36:30;30.30;;;20.37;;
8978;SDS011;4524;51.364;5.448;2023-02-10T13:39:02;28.13;;;20.37;;
8978;SDS011;4524;51.364;5.448;2023-02-10T13:41:34;29.53;;;21.30;;
8978;SDS011;4524;51.364;5.448;2023-02-10T13:44:16;27.70;;;19.70;;
8978;SDS011;4524;51.364;5.448;2023-02-10T13:46:46;28.50;;;19.90;;
8978;SDS011;4524;51.364;5.448;2023-02-10T13:49:21;27.83;;;19.27;;
8978;SDS011;4524;51.364;5.448;2023-02-10T13:51:58;30.00;;;20.57;;
8978;SDS011;4524;51.364;5.448;2023-02-10T13:54:31;27.90;;;19.87;;
8978;SDS011;4524;51.364;5.448;2023-02-10T13:57:02;27.63;;;19.80;;
8978;SDS011;4524;51.364;5.448;2023-02-10T13:59:37;31.00;;;21.53;;
8978;SDS011;4524;51.364;5.448;2023-02-10T14:02:16;27.87;;;20.90;;
8978;SDS011;4524;51.364;5.448;2023-02-10T14:04:51;34.53;;;22.43;;
8978;SDS011;4524;51.364;5.448;2023-02-10T14:07:32;29.53;;;22.10;;
8978;SDS011;4524;51.364;5.448;2023-02-10T14:10:04;32.70;;;20.97;;
8978;SDS011;4524;51.364;5.448;2023-02-10T14:12:55;33.67;;;22.57;;
8978;SDS011;4524;51.364;5.448;2023-02-10T14:15:25;30.80;;;22.40;;
8978;SDS011;4524;51.364;5.448;2023-02-10T14:17:55;35.87;;;24.23;;
8978;SDS011;4524;51.364;5.448;2023-02-10T14:20:26;33.37;;;24.70;;
8978;SDS011;4524;51.364;5.448;2023-02-10T14:23:01;38.90;;;26.87;;
8978;SDS011;4524;51.364;5.448;2023-02-10T14:25:33;36.33;;;25.93;;
8978;SDS011;4524;51.364;5.448;2023-02-10T14:28:04;36.47;;;25.03;;
8978;SDS011;4524;51.364;5.448;2023-02-10T14:30:41;36.70;;;25.87;;
8978;SDS011;4524;51.364;5.448;2023-02-10T14:33:19;36.73;;;26.37;;
8978;SDS011;4524;51.364;5.448;2023-02-10T14:35:51;40.00;;;25.73;;
8978;SDS011;4524;51.364;5.448;2023-02-10T14:38:23;43.37;;;27.57;;
8978;SDS011;4524;51.364;5.448;2023-02-10T14:40:52;44.53;;;26.80;;
8978;SDS011;4524;51.364;5.448;2023-02-10T14:43:23;39.43;;;25.90;;
8978;SDS011;4524;51.364;5.448;2023-02-10T14:45:53;40.73;;;26.07;;
8978;SDS011;4524;51.364;5.448;2023-02-10T14:48:23;43.63;;;27.47;;
8978;SDS011;4524;51.364;5.448;2023-02-10T14:51:01;42.67;;;26.77;;
8978;SDS011;4524;51.364;5.448;2023-02-10T14:53:35;36.27;;;23.60;;
8978;SDS011;4524;51.364;5.448;2023-02-10T14:56:12;34.07;;;22.43;;
8978;SDS011;4524;51.364;5.448;2023-02-10T14:58:46;32.97;;;21.73;;
8978;SDS011;4524;51.364;5.448;2023-02-10T15:01:20;33.53;;;21.80;;
8978;SDS011;4524;51.364;5.448;2023-02-10T15:03:51;31.67;;;21.17;;
8978;SDS011;4524;51.364;5.448;2023-02-10T15:06:21;34.27;;;23.03;;
8978;SDS011;4524;51.364;5.448;2023-02-10T15:08:53;32.33;;;21.73;;
8978;SDS011;4524;51.364;5.448;2023-02-10T15:11:25;31.70;;;22.10;;
8978;SDS011;4524;51.364;5.448;2023-02-10T15:14:15;33.77;;;22.03;;
8978;SDS011;4524;51.364;5.448;2023-02-10T15:16:46;36.27;;;21.87;;
8978;SDS011;4524;51.364;5.448;2023-02-10T15:19:15;34.20;;;20.47;;